createdAt,value
2023-01-01T00:00:22.203Z,5.26
2023-01-01T00:03:09.688Z,5.26
2023-01-01T00:05:40.582Z,5.27
2023-01-01T00:08:07.723Z,5.29
2023-01-01T00:10:35.229Z,5.30
2023-01-01T00:13:02.500Z,5.31
2023-01-01T00:15:30.045Z,5.30
2023-01-01T00:17:57.276Z,5.27
2023-01-01T00:20:26.606Z,5.23
2023-01-01T00:22:56.895Z,5.15
2023-01-01T00:25:24.728Z,5.06
2023-01-01T00:27:51.900Z,4.94
2023-01-01T00:30:19.358Z,4.83
2023-01-01T00:32:54.747Z,4.72
2023-01-01T00:35:24.894Z,4.61
2023-01-01T00:37:53.787Z,4.49
2023-01-01T00:40:21.125Z,4.39
2023-01-01T00:42:48.909Z,4.28
2023-01-01T00:45:21.402Z,4.17
2023-01-01T00:47:53.742Z,4.04
2023-01-01T00:50:22.825Z,3.93
2023-01-01T00:52:50.127Z,3.84
2023-01-01T00:55:17.536Z,3.76
2023-01-01T00:57:44.891Z,3.70
2023-01-01T01:00:13.066Z,3.62
2023-01-01T01:02:40.364Z,3.55
2023-01-01T01:05:08.492Z,3.50
2023-01-01T01:07:37.274Z,3.44
2023-01-01T01:10:04.847Z,3.41
2023-01-01T01:12:34.020Z,3.43
2023-01-01T01:15:01.864Z,3.52
2023-01-01T01:17:29.403Z,3.64
2023-01-01T01:19:57.250Z,3.75
2023-01-01T01:22:28.731Z,3.85
2023-01-01T01:24:57.264Z,3.90
2023-01-01T01:27:24.757Z,3.89
2023-01-01T01:29:52.617Z,3.92
2023-01-01T01:32:20.162Z,3.96
2023-01-01T01:34:47.396Z,3.99
2023-01-01T01:37:15.267Z,4.06
2023-01-01T01:39:42.731Z,4.10
2023-01-01T01:42:17.678Z,4.15
2023-01-01T01:44:57.623Z,4.21
2023-01-01T01:47:50.280Z,4.24
2023-01-01T01:50:23.648Z,4.28
2023-01-01T01:53:15.306Z,4.29
2023-01-01T01:55:51.031Z,4.25
2023-01-01T01:58:18.764Z,4.23
2023-01-01T02:00:47.416Z,4.21
2023-01-01T02:03:52.743Z,4.23
2023-01-01T02:06:20.910Z,4.20
2023-01-01T02:08:49.801Z,4.21
2023-01-01T02:11:21.770Z,4.26
2023-01-01T02:13:50.705Z,4.30
2023-01-01T02:16:29.054Z,4.34
2023-01-01T02:19:41.683Z,4.37
2023-01-01T02:22:24.399Z,4.35
2023-01-01T02:25:10.707Z,4.29
2023-01-01T02:28:09.037Z,4.24
2023-01-01T02:30:38.494Z,4.23
2023-01-01T02:33:17.975Z,4.22
2023-01-01T02:35:55.820Z,4.24
2023-01-01T02:38:42.229Z,4.25
2023-01-01T02:41:15.556Z,4.23
2023-01-01T02:43:42.765Z,4.22
2023-01-01T02:46:11.894Z,4.19
2023-01-01T02:48:42.004Z,4.18
2023-01-01T02:51:28.602Z,4.14
2023-01-01T02:53:55.752Z,4.11
2023-01-01T02:56:45.121Z,4.09
2023-01-01T02:59:37.985Z,4.02
2023-01-01T03:02:36.448Z,3.96
2023-01-01T03:05:33.731Z,3.91
2023-01-01T03:08:10.390Z,3.92
2023-01-01T03:11:03.537Z,3.90
2023-01-01T03:13:44.320Z,3.87
2023-01-01T03:16:30.115Z,3.87
2023-01-01T03:19:27.365Z,3.86
2023-01-01T03:22:06.500Z,3.87
2023-01-01T03:24:55.969Z,3.89
2023-01-01T03:27:35.720Z,3.94
2023-01-01T03:30:07.908Z,3.96
2023-01-01T03:32:57.424Z,3.96
2023-01-01T03:35:33.856Z,3.95
2023-01-01T03:38:03.441Z,3.96
2023-01-01T03:40:35.797Z,3.95
2023-01-01T03:43:11.545Z,3.97
2023-01-01T03:45:43.006Z,4.00
2023-01-01T03:48:11.483Z,4.01
2023-01-01T03:50:48.066Z,4.05
2023-01-01T03:53:45.015Z,4.08
2023-01-01T03:56:19.461Z,4.12
2023-01-01T03:58:56.902Z,4.13
2023-01-01T04:01:30.590Z,4.15
2023-01-01T04:03:59.630Z,4.15
2023-01-01T04:06:27.495Z,4.10
2023-01-01T04:08:59.366Z,4.03
2023-01-01T04:11:50.197Z,3.92
2023-01-01T04:14:46.810Z,3.80
2023-01-01T04:17:14.378Z,3.68
2023-01-01T04:19:41.631Z,3.60
2023-01-01T04:22:09.795Z,3.51
2023-01-01T04:24:37.453Z,3.45
2023-01-01T04:27:05.320Z,3.40
2023-01-01T04:29:33.597Z,3.37
2023-01-01T04:32:01.241Z,3.34
2023-01-01T04:34:28.497Z,3.29
2023-01-01T04:36:55.665Z,3.25
2023-01-01T04:39:23.173Z,3.17
2023-01-01T04:41:51.411Z,3.04
2023-01-01T04:44:18.756Z,2.92
2023-01-01T04:46:46.203Z,2.82
2023-01-01T04:49:13.262Z,2.73
2023-01-01T04:51:40.818Z,2.63
2023-01-01T04:54:08.349Z,2.55
2023-01-01T04:56:35.524Z,2.48
2023-01-01T04:59:02.715Z,2.42
2023-01-01T05:01:30.367Z,2.35
2023-01-01T05:03:58.928Z,2.29
2023-01-01T05:06:28.397Z,2.25
2023-01-01T05:08:57.145Z,2.23
2023-01-01T05:11:27.241Z,2.23
2023-01-01T05:13:56.532Z,2.21
2023-01-01T05:16:26.282Z,2.19
2023-01-01T05:18:54.116Z,2.17
2023-01-01T05:21:24.045Z,2.15
2023-01-01T05:23:59.510Z,2.14
2023-01-01T05:26:30.850Z,2.14
2023-01-01T05:28:59.922Z,2.16
2023-01-01T05:31:32.839Z,2.16
2023-01-01T05:36:30.584Z,2.14
2023-01-01T05:38:58.974Z,2.15
2023-01-01T05:41:26.952Z,2.17
2023-01-01T05:43:54.401Z,2.21
2023-01-01T05:46:24.026Z,2.28
2023-01-01T05:48:53.012Z,2.37
2023-01-01T05:51:23.549Z,2.44
2023-01-01T05:53:52.657Z,2.56
2023-01-01T05:56:20.906Z,2.65
2023-01-01T05:58:48.468Z,2.75
2023-01-01T06:01:19.632Z,2.82
2023-01-01T06:03:48.499Z,2.93
2023-01-01T06:06:22.455Z,3.03
2023-01-01T06:08:55.295Z,3.15
2023-01-01T06:11:23.091Z,3.30
2023-01-01T06:13:55.023Z,3.43
2023-01-01T06:16:22.618Z,3.56
2023-01-01T06:18:49.696Z,3.66
2023-01-01T06:21:19.716Z,3.76
2023-01-01T06:23:47.519Z,3.84
2023-01-01T06:26:22.142Z,3.91
2023-01-01T06:28:50.212Z,3.97
2023-01-01T06:31:20.006Z,4.04
2023-01-01T06:33:48.804Z,4.10
2023-01-01T06:36:19.411Z,4.18
2023-01-01T06:38:51.061Z,4.20
2023-01-01T06:41:21.119Z,4.24
2023-01-01T06:43:48.607Z,4.34
2023-01-01T06:46:23.863Z,4.46
2023-01-01T06:48:56.699Z,4.62
2023-01-01T06:51:26.968Z,4.78
2023-01-01T06:53:58.094Z,4.93
2023-01-01T06:56:25.747Z,5.09
2023-01-01T06:58:53.084Z,5.26
2023-01-01T07:01:22.769Z,5.43
2023-01-01T07:03:55.799Z,5.57
2023-01-01T07:06:24.881Z,5.68
2023-01-01T07:08:52.942Z,5.86
2023-01-01T07:11:20.643Z,6.09
2023-01-01T07:13:47.771Z,6.29
2023-01-01T07:16:16.927Z,6.47
2023-01-01T07:18:45.189Z,6.63
2023-01-01T07:21:29.430Z,6.81
2023-01-01T07:24:03.908Z,6.97
2023-01-01T07:26:32.834Z,7.02
2023-01-01T07:29:08.568Z,7.01
2023-01-01T07:31:38.315Z,7.18
2023-01-01T07:34:06.833Z,7.42
2023-01-01T07:36:34.451Z,7.56
2023-01-01T07:39:01.986Z,7.70
2023-01-01T07:41:29.431Z,7.80
2023-01-01T07:43:57.199Z,7.78
2023-01-01T07:46:24.777Z,7.85
2023-01-01T07:48:52.637Z,7.89
2023-01-01T07:51:20.387Z,7.88
2023-01-01T07:53:47.748Z,7.77
2023-01-01T07:56:15.206Z,7.80
2023-01-01T07:58:42.668Z,7.91
2023-01-01T08:01:12.921Z,7.99
2023-01-01T08:03:40.652Z,8.17
2023-01-01T08:06:12.553Z,8.25
2023-01-01T08:08:40.818Z,8.49
2023-01-01T08:11:08.533Z,8.63
2023-01-01T08:13:37.146Z,8.81
2023-01-01T08:16:06.543Z,8.94
2023-01-01T08:18:34.613Z,9.11
2023-01-01T08:21:02.698Z,9.34
2023-01-01T08:23:30.350Z,9.55
2023-01-01T08:26:02.111Z,9.84
2023-01-01T08:28:30.368Z,10.08
2023-01-01T08:30:58.747Z,10.27
2023-01-01T08:33:26.244Z,10.48
2023-01-01T08:35:54.808Z,10.62
2023-01-01T08:38:22.268Z,10.63
2023-01-01T08:40:49.635Z,10.75
2023-01-01T08:43:16.979Z,11.02
2023-01-01T08:45:46.984Z,11.25
2023-01-01T08:48:14.248Z,11.30
2023-01-01T08:50:41.502Z,11.55
2023-01-01T08:53:08.904Z,11.48
2023-01-01T08:55:40.932Z,11.55
2023-01-01T08:58:08.295Z,11.62
2023-01-01T09:00:36.149Z,11.78
2023-01-01T09:03:04.004Z,11.79
2023-01-01T09:05:31.742Z,11.66
2023-01-01T09:07:59.752Z,11.69
2023-01-01T09:10:27.091Z,11.81
2023-01-01T09:12:54.167Z,12.02
2023-01-01T09:15:21.309Z,12.16
2023-01-01T09:17:50.098Z,12.36
2023-01-01T09:20:17.552Z,12.58
2023-01-01T09:22:45.112Z,12.48
2023-01-01T09:25:12.555Z,12.49
2023-01-01T09:27:39.830Z,12.62
2023-01-01T09:30:07.955Z,12.70
2023-01-01T09:32:35.183Z,12.87
2023-01-01T09:35:03.970Z,12.97
2023-01-01T09:37:31.217Z,13.00
2023-01-01T09:39:59.070Z,13.19
2023-01-01T09:42:29.381Z,13.28
2023-01-01T09:45:06.743Z,13.24
2023-01-01T09:47:44.791Z,13.26
2023-01-01T09:50:14.689Z,13.35
2023-01-01T09:52:56.291Z,13.46
2023-01-01T09:55:34.610Z,13.33
2023-01-01T09:58:03.932Z,13.37
2023-01-01T10:00:34.845Z,13.48
2023-01-01T10:03:07.517Z,13.62
2023-01-01T10:05:38.571Z,13.75
2023-01-01T10:08:28.454Z,13.89
2023-01-01T10:10:55.757Z,14.14
2023-01-01T10:13:44.855Z,14.35
2023-01-01T10:16:23.960Z,14.68
2023-01-01T10:18:56.269Z,14.67
2023-01-01T10:21:30.164Z,14.71
2023-01-01T10:24:05.534Z,14.91
2023-01-01T10:26:34.983Z,15.24
2023-01-01T10:29:13.561Z,15.36
2023-01-01T10:31:46.177Z,15.39
2023-01-01T10:34:22.310Z,15.53
2023-01-01T10:36:54.288Z,15.67
2023-01-01T10:39:21.878Z,15.86
2023-01-01T10:41:49.442Z,15.93
2023-01-01T10:44:26.349Z,15.96
2023-01-01T10:46:58.116Z,16.00
2023-01-01T10:49:31.024Z,16.08
2023-01-01T10:52:02.466Z,16.27
2023-01-01T10:54:34.881Z,16.49
2023-01-01T10:57:20.195Z,16.56
2023-01-01T10:59:53.789Z,16.64
2023-01-01T11:02:23.526Z,16.83
2023-01-01T11:05:17.668Z,16.79
2023-01-01T11:07:48.445Z,16.86
2023-01-01T11:10:21.862Z,17.14
2023-01-01T11:13:09.387Z,17.46
2023-01-01T11:15:41.477Z,17.79
2023-01-01T11:18:15.930Z,17.71
2023-01-01T11:20:51.270Z,17.57
2023-01-01T11:23:20.286Z,17.38
2023-01-01T11:26:17.667Z,17.46
2023-01-01T11:29:00.106Z,17.23
2023-01-01T11:31:39.437Z,17.29
2023-01-01T11:34:28.927Z,17.39
2023-01-01T11:37:16.779Z,17.70
2023-01-01T11:39:47.149Z,18.01
2023-01-01T11:42:44.974Z,18.44
2023-01-01T11:45:15.342Z,18.76
2023-01-01T11:47:44.372Z,18.63
2023-01-01T11:50:24.956Z,18.45
2023-01-01T11:52:55.040Z,18.43
2023-01-01T11:55:35.085Z,18.60
2023-01-01T11:58:19.620Z,18.40
2023-01-01T12:00:51.262Z,18.73
2023-01-01T12:03:44.694Z,18.87
2023-01-01T12:06:16.836Z,18.92
2023-01-01T12:08:56.119Z,18.61
2023-01-01T12:11:35.660Z,18.70
2023-01-01T12:14:32.688Z,18.89
2023-01-01T12:17:02.883Z,19.19
2023-01-01T12:19:54.533Z,19.46
2023-01-01T12:22:21.717Z,20.00
2023-01-01T12:24:50.700Z,19.81
2023-01-01T12:27:23.637Z,19.65
2023-01-01T12:29:53.815Z,19.26
2023-01-01T12:32:35.963Z,19.23
2023-01-01T12:35:22.473Z,19.77
2023-01-01T12:38:07.876Z,19.94
2023-01-01T12:40:51.887Z,19.55
2023-01-01T12:43:31.947Z,19.59
2023-01-01T12:46:08.446Z,20.02
2023-01-01T12:48:48.475Z,20.48
2023-01-01T12:51:54.340Z,20.85
2023-01-01T12:54:42.990Z,21.22
2023-01-01T12:57:31.483Z,21.04
2023-01-01T13:00:02.501Z,21.17
2023-01-01T13:02:37.120Z,21.08
2023-01-01T13:05:13.267Z,21.25
2023-01-01T13:07:45.348Z,20.71
2023-01-01T13:10:38.193Z,20.87
2023-01-01T13:13:06.694Z,20.68
2023-01-01T13:15:36.896Z,20.59
2023-01-01T13:18:06.223Z,20.41
2023-01-01T13:20:46.660Z,20.38
2023-01-01T13:23:38.932Z,20.19
2023-01-01T13:26:22.433Z,19.73
2023-01-01T13:29:01.675Z,19.60
2023-01-01T13:31:40.761Z,19.93
2023-01-01T13:34:31.284Z,20.29
2023-01-01T13:37:29.592Z,20.80
2023-01-01T13:40:00.047Z,21.06
2023-01-01T13:43:02.295Z,20.68
2023-01-01T13:48:50.047Z,19.86
2023-01-01T13:54:45.883Z,19.77
2023-01-01T13:57:51.646Z,19.86
2023-01-01T14:00:37.387Z,19.66
2023-01-01T14:03:14.645Z,19.28
2023-01-01T14:05:51.211Z,19.36
2023-01-01T14:08:44.862Z,19.30
2023-01-01T14:11:20.989Z,18.79
2023-01-01T14:13:48.407Z,18.33
2023-01-01T14:16:16.896Z,17.57
2023-01-01T14:18:48.282Z,16.84
2023-01-01T14:21:25.202Z,16.53
2023-01-01T14:23:56.665Z,15.86
2023-01-01T14:26:27.616Z,15.18
2023-01-01T14:29:02.896Z,14.49
2023-01-01T14:31:38.924Z,14.09
2023-01-01T14:34:16.816Z,13.65
2023-01-01T14:36:59.216Z,13.38
2023-01-01T14:39:33.567Z,13.09
2023-01-01T14:42:04.919Z,12.82
2023-01-01T14:44:44.310Z,12.59
2023-01-01T14:47:34.564Z,12.35
2023-01-01T14:50:06.261Z,12.13
2023-01-01T14:52:35.105Z,11.99
2023-01-01T14:55:05.711Z,11.86
2023-01-01T14:57:35.913Z,11.71
2023-01-01T15:00:20.979Z,11.57
2023-01-01T15:02:48.579Z,11.40
2023-01-01T15:05:22.240Z,11.26
2023-01-01T15:08:01.169Z,11.12
2023-01-01T15:10:31.805Z,10.98
2023-01-01T15:12:59.562Z,10.86
2023-01-01T15:15:45.263Z,10.74
2023-01-01T15:18:39.671Z,10.64
2023-01-01T15:21:26.455Z,10.56
2023-01-01T15:23:56.469Z,10.49
2023-01-01T15:26:46.047Z,10.43
2023-01-01T15:29:23.169Z,10.37
2023-01-01T15:31:55.973Z,10.27
2023-01-01T15:34:32.464Z,10.16
2023-01-01T15:37:46.180Z,10.07
2023-01-01T15:40:14.720Z,9.97
2023-01-01T15:43:21.408Z,9.91
2023-01-01T15:45:53.657Z,9.86
2023-01-01T15:48:48.091Z,9.84
2023-01-01T15:51:22.172Z,9.86
2023-01-01T15:53:56.601Z,9.87
2023-01-01T15:56:30.503Z,9.87
2023-01-01T15:59:18.244Z,9.86
2023-01-01T16:01:47.731Z,9.82
2023-01-01T16:04:29.029Z,9.80
2023-01-01T16:06:58.634Z,9.77
2023-01-01T16:09:25.974Z,9.71
2023-01-01T16:11:56.105Z,9.57
2023-01-01T16:14:23.773Z,9.43
2023-01-01T16:16:56.344Z,9.26
2023-01-01T16:19:24.434Z,9.11
2023-01-01T16:21:51.585Z,9.01
2023-01-01T16:24:19.886Z,8.97
2023-01-01T16:26:47.828Z,8.92
2023-01-01T16:29:16.252Z,8.87
2023-01-01T16:31:45.185Z,8.82
2023-01-01T16:34:15.315Z,8.74
2023-01-01T16:36:44.135Z,8.60
2023-01-01T16:39:16.268Z,8.47
2023-01-01T16:41:44.470Z,8.36
2023-01-01T16:44:13.678Z,8.26
2023-01-01T16:46:46.640Z,8.14
2023-01-01T16:49:13.996Z,8.09
2023-01-01T16:51:44.158Z,8.10
2023-01-01T16:54:13.599Z,8.10
2023-01-01T16:56:40.926Z,8.08
2023-01-01T16:59:10.602Z,8.08
2023-01-01T17:01:38.226Z,8.11
2023-01-01T17:04:07.305Z,8.13
2023-01-01T17:06:34.513Z,8.12
2023-01-01T17:09:02.779Z,8.10
2023-01-01T17:11:30.373Z,8.07
2023-01-01T17:14:02.233Z,8.03
2023-01-01T17:16:36.195Z,7.99
2023-01-01T17:19:16.054Z,7.93
2023-01-01T17:21:45.815Z,7.87
2023-01-01T17:24:15.057Z,7.82
2023-01-01T17:26:42.421Z,7.76
2023-01-01T17:29:11.984Z,7.75
2023-01-01T17:31:39.501Z,7.77
2023-01-01T17:34:06.923Z,7.80
2023-01-01T17:36:35.007Z,7.86
2023-01-01T17:39:02.775Z,7.90
2023-01-01T17:41:30.329Z,7.88
2023-01-01T17:43:57.671Z,7.80
2023-01-01T17:46:32.369Z,7.71
2023-01-01T17:49:00.704Z,7.66
2023-01-01T17:51:28.387Z,7.62
2023-01-01T17:53:56.024Z,7.56
2023-01-01T17:56:24.315Z,7.51
2023-01-01T17:58:52.971Z,7.49
2023-01-01T18:01:23.746Z,7.53
2023-01-01T18:03:57.798Z,7.57
2023-01-01T18:06:25.706Z,7.60
2023-01-01T18:08:56.236Z,7.64
2023-01-01T18:11:25.195Z,7.67
2023-01-01T18:13:52.742Z,7.72
2023-01-01T18:16:20.777Z,7.76
2023-01-01T18:18:48.676Z,7.77
2023-01-01T18:21:20.255Z,7.71
2023-01-01T18:23:52.835Z,7.63
2023-01-01T18:26:22.260Z,7.54
2023-01-01T18:28:52.919Z,7.47
2023-01-01T18:31:20.695Z,7.44
2023-01-01T18:33:49.554Z,7.42
2023-01-01T18:36:21.286Z,7.39
2023-01-01T18:39:07.198Z,7.35
2023-01-01T18:42:03.235Z,7.30
2023-01-01T18:44:32.697Z,7.21
2023-01-01T18:47:16.067Z,7.13
2023-01-01T18:50:07.795Z,7.10
2023-01-01T18:52:36.515Z,7.09
2023-01-01T18:55:13.866Z,7.07
2023-01-01T18:57:41.557Z,7.06
2023-01-01T19:00:16.059Z,7.03
2023-01-01T19:02:49.484Z,6.98
2023-01-01T19:05:26.839Z,6.94
2023-01-01T19:08:07.384Z,6.91
2023-01-01T19:10:46.114Z,6.92
2023-01-01T19:13:23.432Z,6.95
2023-01-01T19:15:57.913Z,7.01
2023-01-01T19:18:29.495Z,7.06
2023-01-01T19:21:12.140Z,7.10
2023-01-01T19:23:51.675Z,7.08
2023-01-01T19:26:32.476Z,7.07
2023-01-01T19:29:09.511Z,7.05
2023-01-01T19:31:36.949Z,7.03
2023-01-01T19:34:04.759Z,7.03
2023-01-01T19:36:33.730Z,7.03
2023-01-01T19:39:01.135Z,7.02
2023-01-01T19:41:29.673Z,7.01
2023-01-01T19:43:57.071Z,7.00
2023-01-01T19:46:24.474Z,6.98
2023-01-01T19:48:52.992Z,6.97
2023-01-01T19:51:24.209Z,6.96
2023-01-01T19:53:53.167Z,6.92
2023-01-01T19:56:21.374Z,6.91
2023-01-01T19:58:49.035Z,6.88
2023-01-01T20:01:16.756Z,6.85
2023-01-01T20:03:59.549Z,6.84
2023-01-01T20:06:28.192Z,6.82
2023-01-01T20:08:55.676Z,6.81
2023-01-01T20:11:23.093Z,6.78
2023-01-01T20:13:50.684Z,6.76
2023-01-01T20:16:18.271Z,6.76
2023-01-01T20:18:45.712Z,6.74
2023-01-01T20:21:31.769Z,6.73
2023-01-01T20:23:58.944Z,6.72
2023-01-01T20:26:26.388Z,6.70
2023-01-01T20:29:12.170Z,6.70
2023-01-01T20:31:39.759Z,6.70
2023-01-01T20:34:06.939Z,6.68
2023-01-01T20:36:53.615Z,6.66
2023-01-01T20:39:22.080Z,6.63
2023-01-01T20:41:49.866Z,6.61
2023-01-01T20:44:17.540Z,6.60
2023-01-01T20:46:47.538Z,6.57
2023-01-01T20:49:16.840Z,6.54
2023-01-01T20:51:45.636Z,6.53
2023-01-01T20:54:15.237Z,6.52
2023-01-01T20:56:42.902Z,6.52
2023-01-01T20:59:31.781Z,6.50
2023-01-01T21:02:00.071Z,6.47
2023-01-01T21:04:27.403Z,6.41
2023-01-01T21:06:54.666Z,6.34
2023-01-01T21:09:22.111Z,6.27
2023-01-01T21:11:49.667Z,6.24
2023-01-01T21:14:19.250Z,6.20
2023-01-01T21:16:46.896Z,6.17
2023-01-01T21:19:15.224Z,6.16
2023-01-01T21:21:43.915Z,6.15
2023-01-01T21:24:37.092Z,6.14
2023-01-01T21:27:07.893Z,6.13
2023-01-01T21:29:36.995Z,6.09
2023-01-01T21:32:21.424Z,6.05
2023-01-01T21:34:50.954Z,6.01
2023-01-01T21:37:45.041Z,6.01
2023-01-01T21:40:30.311Z,5.98
2023-01-01T21:43:33.038Z,5.97
2023-01-01T21:46:06.568Z,5.97
2023-01-01T21:48:35.696Z,5.96
2023-01-01T21:51:11.797Z,5.95
2023-01-01T21:53:38.950Z,5.94
2023-01-01T21:56:36.986Z,5.94
2023-01-01T21:59:35.679Z,5.91
2023-01-01T22:02:06.686Z,5.84
2023-01-01T22:04:54.441Z,5.76
2023-01-01T22:10:21.232Z,5.56
2023-01-01T22:13:01.274Z,5.48
2023-01-01T22:15:32.591Z,5.48
2023-01-01T22:18:09.188Z,5.46
2023-01-01T22:20:39.290Z,5.45
2023-01-01T22:23:31.853Z,5.48
2023-01-01T22:25:59.829Z,5.53
2023-01-01T22:28:40.099Z,5.56
2023-01-01T22:31:10.729Z,5.62
2023-01-01T22:33:43.741Z,5.68
2023-01-01T22:36:31.727Z,5.69
2023-01-01T22:39:08.900Z,5.69
2023-01-01T22:41:36.283Z,5.63
2023-01-01T22:44:05.177Z,5.59
2023-01-01T22:46:40.346Z,5.56
2023-01-01T22:49:40.537Z,5.57
2023-01-01T22:52:09.632Z,5.55
2023-01-01T22:54:37.096Z,5.54
2023-01-01T22:57:06.500Z,5.58
2023-01-01T22:59:33.747Z,5.62
2023-01-01T23:02:00.965Z,5.63
2023-01-01T23:04:28.874Z,5.64
2023-01-01T23:06:56.230Z,5.63
2023-01-01T23:09:24.110Z,5.59
2023-01-01T23:11:54.311Z,5.52
2023-01-01T23:14:40.422Z,5.45
2023-01-01T23:17:08.640Z,5.38
2023-01-01T23:19:35.961Z,5.34
2023-01-01T23:22:04.018Z,5.28
2023-01-01T23:24:32.203Z,5.21
2023-01-01T23:27:00.876Z,5.18
2023-01-01T23:29:33.052Z,5.13
2023-01-01T23:32:01.722Z,5.12
2023-01-01T23:34:29.081Z,5.05
2023-01-01T23:36:57.362Z,5.03
2023-01-01T23:39:24.823Z,5.01
2023-01-01T23:41:52.286Z,4.97
2023-01-01T23:44:19.625Z,4.98
2023-01-01T23:46:47.565Z,4.99
2023-01-01T23:49:15.263Z,5.00
2023-01-01T23:51:42.852Z,5.04
2023-01-01T23:54:10.276Z,5.07
2023-01-01T23:56:37.434Z,5.09
2023-01-01T23:59:04.791Z,5.07
